Time;durP1;ratioP1;P1;durP2;ratioP2;P2;SDS_P1;SDS_P2;PMS_P1;PMS_P2;Temp;Humidity;BMP_temperature;BMP_pressure;BME280_temperature;BME280_humidity;BME280_pressure;Samples;Min_cycle;Max_cycle;Signal;HPM_P1;HPM_P2
2022/12/23 00:00:05;;;;;;;34.53;24.17;;;;;;;9.01;100.00;92995.03;5010750;28;20076;-61
2022/12/23 00:02:30;;;;;;;35.67;24.70;;;;;;;9.02;100.00;92996.53;5009535;28;20038;-58
2022/12/23 00:04:56;;;;;;;34.83;23.85;;;;;;;8.95;100.00;93332.59;5010627;28;20026;-59
2022/12/23 00:07:21;;;;;;;32.67;24.42;;;;;;;8.98;100.00;93337.13;5009542;28;20046;-58
2022/12/23 00:09:47;;;;;;;39.22;25.42;;;;;;;8.95;100.00;93332.59;5010781;28;20041;-58
2022/12/23 00:15:05;;;;;;;44.28;25.25;;;;;;;9.01;100.00;93341.69;5030728;28;20061;-58
2022/12/23 00:17:32;;;;;;;43.90;28.25;;;;;;;8.97;100.00;93683.06;5019528;28;20524;-58
2022/12/23 00:19:57;;;;;;;43.83;26.63;;;;;;;9.01;100.00;93688.41;5010024;28;20044;-59
2022/12/23 00:25:07;;;;;;;42.10;27.52;;;;;;;8.99;100.00;94032.84;5010629;28;20125;-59
2022/12/23 00:27:32;;;;;;;45.45;28.10;;;;;;;9.00;100.00;94380.38;5009035;28;20568;-59
2022/12/23 00:29:57;;;;;;;42.22;28.13;;;;;;;8.92;100.00;94714.84;5010417;28;20208;-59
2022/12/23 00:32:23;;;;;;;48.47;27.35;;;;;;;8.94;100.00;95064.72;5009486;28;20045;-59
2022/12/23 00:34:48;;;;;;;42.67;28.73;;;;;;;8.95;100.00;94720.22;5010239;28;20033;-59
2022/12/23 00:37:13;;;;;;;58.42;30.27;;;;;;;8.97;100.00;94722.56;5009197;28;20045;-59
2022/12/23 00:45:16;;;;;;;53.38;28.13;;;;;;;8.97;100.00;95069.38;5014060;28;20056;-59
2022/12/23 00:50:27;;;;;;;49.25;30.55;;;;;;;8.96;100.00;95068.56;5013716;28;20044;-59
2022/12/23 00:52:52;;;;;;;45.88;28.52;;;;;;;8.91;100.00;95407.66;5026605;28;20028;-60
2022/12/23 00:55:18;;;;;;;42.42;28.25;;;;;;;8.96;100.00;95068.56;5033829;28;20052;-59
2022/12/23 00:57:44;;;;;;;40.90;27.65;;;;;;;8.92;100.00;95408.41;5030191;28;20041;-59
2022/12/23 01:00:10;;;;;;;44.42;29.02;;;;;;;8.89;100.00;95405.34;5033291;28;20407;-60
2022/12/23 01:05:37;;;;;;;47.45;30.25;;;;;;;8.95;100.00;95066.25;5033289;28;20068;-59
2022/12/23 01:08:12;;;;;;;44.47;28.08;;;;;;;8.97;100.00;95069.38;5030856;28;20045;-60
2022/12/23 01:10:39;;;;;;;49.70;29.42;;;;;;;8.94;100.00;95411.53;5031300;28;20028;-59
2022/12/23 01:13:05;;;;;;;42.35;29.77;;;;;;;8.90;100.00;95406.09;5032833;28;20037;-60
2022/12/23 01:15:31;;;;;;;49.35;31.02;;;;;;;8.91;100.00;95407.66;5031986;28;20025;-60
2022/12/23 01:17:57;;;;;;;50.45;30.63;;;;;;;8.92;100.00;95061.63;5020718;28;20022;-61
2022/12/23 01:20:23;;;;;;;61.90;31.30;;;;;;;8.90;100.00;95406.09;5013215;28;20175;-61
2022/12/23 01:22:48;;;;;;;51.63;29.45;;;;;;;8.96;100.00;95067.81;5012115;28;20038;-61
2022/12/23 01:25:14;;;;;;;53.53;34.60;;;;;;;8.89;100.00;95404.53;5013245;28;20021;-61
2022/12/23 01:27:39;;;;;;;45.25;28.73;;;;;;;8.87;100.00;95402.22;5011769;28;20519;-61
2022/12/23 01:30:05;;;;;;;59.05;34.03;;;;;;;8.91;100.00;95060.84;5026021;28;20400;-61
2022/12/23 01:32:30;;;;;;;57.83;31.23;;;;;;;8.92;100.00;94714.84;5014442;28;20054;-61
2022/12/23 01:34:56;;;;;;;62.72;30.67;;;;;;;8.92;100.00;94715.63;5012993;28;20030;-61
2022/12/23 01:37:21;;;;;;;51.22;31.15;;;;;;;8.89;100.00;94711.78;5011852;28;20456;-60
2022/12/23 01:39:47;;;;;;;62.45;30.80;;;;;;;8.87;100.00;94707.91;5013295;28;20030;-60
2022/12/23 01:45:12;;;;;;;61.20;33.08;;;;;;;8.87;100.00;94361.97;5012964;28;20052;-60
2022/12/23 01:47:40;;;;;;;50.58;29.52;;;;;;;8.82;100.00;94353.53;5011462;28;20033;-59
2022/12/23 01:50:21;;;;;;;62.65;33.42;;;;;;;8.83;100.00;94009.16;5012572;28;20037;-60
2022/12/23 01:52:54;;;;;;;50.72;32.15;;;;;;;8.83;100.00;94009.16;5006475;28;20053;-59
2022/12/23 01:55:24;;;;;;;55.75;31.10;;;;;;;8.85;100.00;93665.56;5012377;28;20028;-59
2022/12/23 01:57:51;;;;;;;62.35;31.83;;;;;;;8.82;100.00;93661.03;5011668;28;20056;-59
2022/12/23 02:05:44;;;;;;;63.40;32.47;;;;;;;8.84;100.00;92970.84;5011359;28;20104;-59
2022/12/23 02:11:34;;;;;;;58.17;32.85;;;;;;;8.85;100.00;92625.81;5030159;28;20080;-59
2022/12/23 02:17:51;;;;;;;53.17;30.67;;;;;;;8.80;100.00;92964.81;5029833;28;20102;-59
2022/12/23 02:20:56;;;;;;;53.78;31.17;;;;;;;8.81;100.00;92966.34;4997803;28;20034;-60
2022/12/23 02:23:50;;;;;;;63.75;33.10;;;;;;;8.77;100.00;92960.28;5011137;28;20042;-60
2022/12/23 02:26:40;;;;;;;63.42;35.15;;;;;;;8.78;100.00;92961.78;5010592;28;20326;-59
2022/12/23 02:29:42;;;;;;;63.45;34.88;;;;;;;8.79;100.00;92616.78;5012946;28;20541;-60
2022/12/23 02:32:17;;;;;;;64.47;33.03;;;;;;;8.75;100.00;92956.50;5010251;28;20045;-60
2022/12/23 02:35:07;;;;;;;67.80;36.03;;;;;;;8.72;100.00;92952.75;5012172;28;20025;-60
2022/12/23 02:37:51;;;;;;;51.60;30.52;;;;;;;8.71;100.00;92951.97;5010905;28;20046;-60
2022/12/23 02:40:36;;;;;;;63.30;30.00;;;;;;;8.71;100.00;93298.47;5020334;28;20037;-61
2022/12/23 02:43:32;;;;;;;59.70;32.95;;;;;;;8.71;100.00;92604.75;5030241;28;20084;-61
2022/12/23 02:46:01;;;;;;;62.65;32.38;;;;;;;8.70;100.00;92604.00;5029923;28;20436;-61
2022/12/23 02:48:57;;;;;;;69.85;31.88;;;;;;;8.70;100.00;92604.00;5015480;28;20091;-61
2022/12/23 02:51:27;;;;;;;63.40;29.92;;;;;;;8.68;100.00;92600.22;5010482;28;20042;-61
2022/12/23 02:53:57;;;;;;;61.85;30.95;;;;;;;8.66;100.00;92250.81;5013627;28;20025;-60
2022/12/23 02:56:25;;;;;;;51.70;27.42;;;;;;;8.64;100.00;92247.81;5029781;28;20420;-61
2022/12/23 02:59:11;;;;;;;49.47;26.65;;;;;;;8.62;100.00;92245.56;5012688;28;20041;-62
2022/12/23 03:01:38;;;;;;;47.08;24.60;;;;;;;8.62;100.00;92244.81;5009559;28;20045;-61
2022/12/23 03:04:03;;;;;;;40.70;21.58;;;;;;;8.60;100.00;92241.84;5011292;28;20110;-61
2022/12/23 03:06:38;;;;;;;40.58;23.05;;;;;;;8.62;100.00;91898.44;5022833;28;20134;-61
2022/12/23 03:09:03;;;;;;;53.85;26.02;;;;;;;8.61;100.00;91550.63;5011340;28;20030;-62
2022/12/23 03:11:48;;;;;;;52.92;22.42;;;;;;;8.59;100.00;91548.41;5010198;28;20054;-62
2022/12/23 03:14:54;;;;;;;54.35;26.05;;;;;;;8.60;100.00;91549.16;5011362;28;20107;-61
2022/12/23 03:17:50;;;;;;;61.20;26.27;;;;;;;8.57;100.00;91546.19;5014801;28;20033;-60
2022/12/23 03:20:41;;;;;;;47.85;26.75;;;;;;;8.56;100.00;91198.41;5030686;28;20056;-61
2022/12/23 03:23:27;;;;;;;49.33;26.48;;;;;;;8.55;100.00;91196.91;5029520;28;20034;-61
2022/12/23 03:26:00;;;;;;;43.65;21.00;;;;;;;8.48;100.00;91186.56;5029074;28;20554;-61
2022/12/23 03:28:49;;;;;;;47.95;25.77;;;;;;;8.48;100.00;91186.56;5030306;28;20036;-61
2022/12/23 03:31:22;;;;;;;49.10;24.58;;;;;;;8.49;100.00;91188.03;5028021;28;20061;-61
2022/12/23 03:33:53;;;;;;;45.42;25.95;;;;;;;8.45;100.00;91182.06;5030972;28;20037;-61
2022/12/23 03:36:25;;;;;;;53.13;26.05;;;;;;;8.43;100.00;91525.34;5025683;28;20033;-60
2022/12/23 03:38:53;;;;;;;52.67;24.83;;;;;;;8.41;100.00;91522.34;5009599;28;20169;-59
2022/12/23 03:41:26;;;;;;;46.00;23.23;;;;;;;8.36;100.00;91515.66;5010890;28;20038;-60
2022/12/23 03:44:05;;;;;;;44.80;23.58;;;;;;;8.35;100.00;91513.44;5009790;28;20038;-60
2022/12/23 03:46:42;;;;;;;44.08;21.35;;;;;;;8.34;100.00;91858.88;5009314;28;20038;-60
2022/12/23 03:49:13;;;;;;;44.45;21.90;;;;;;;8.32;100.00;91855.16;5009481;28;20033;-60
2022/12/23 03:51:49;;;;;;;40.67;21.73;;;;;;;8.26;100.00;92193.88;5009703;28;20481;-60
2022/12/23 03:54:20;;;;;;;52.35;23.25;;;;;;;8.25;100.00;92192.34;5010526;28;20029;-59
2022/12/23 03:56:53;;;;;;;34.20;19.88;;;;;;;8.24;100.00;92190.84;5009811;28;20048;-60
2022/12/23 03:59:24;;;;;;;47.80;22.85;;;;;;;8.28;100.00;92195.38;5010628;28;20033;-60
2022/12/23 04:01:58;;;;;;;46.70;22.45;;;;;;;8.26;100.00;92539.31;5009417;28;20048;-60
2022/12/23 04:04:28;;;;;;;40.10;22.25;;;;;;;8.23;100.00;92881.75;5011018;28;20377;-60
2022/12/23 04:07:01;;;;;;;39.15;21.50;;;;;;;8.21;100.00;93224.97;5018892;28;20175;-61
2022/12/23 04:09:27;;;;;;;42.90;23.05;;;;;;;8.15;100.00;93215.88;5030014;28;20025;-60
2022/12/23 04:11:53;;;;;;;34.80;20.38;;;;;;;8.23;100.00;92881.75;5029257;28;20052;-61
2022/12/23 04:14:20;;;;;;;42.25;21.05;;;;;;;8.22;100.00;93226.50;5033430;28;20033;-60
2022/12/23 04:16:48;;;;;;;36.60;20.95;;;;;;;8.19;100.00;93568.19;5032060;28;20037;-59
2022/12/23 04:19:13;;;;;;;38.67;21.67;;;;;;;8.22;100.00;93572.75;5033807;28;20109;-59
2022/12/23 04:21:39;;;;;;;37.22;18.17;;;;;;;8.23;100.00;93574.25;5033032;28;20025;-59
2022/12/23 04:24:04;;;;;;;36.92;21.92;;;;;;;8.22;100.00;93572.75;5033987;28;20025;-59
2022/12/23 04:26:29;;;;;;;41.03;22.85;;;;;;;8.23;100.00;93573.50;5024622;28;20030;-59
2022/12/23 04:28:55;;;;;;;33.67;20.02;;;;;;;8.22;100.00;93919.06;5014292;28;20033;-59
2022/12/23 04:31:20;;;;;;;39.38;22.50;;;;;;;8.20;100.00;93916.00;5012446;28;20108;-59
2022/12/23 04:33:45;;;;;;;39.28;20.10;;;;;;;8.19;100.00;94260.78;5014726;28;20025;-59
2022/12/23 04:36:11;;;;;;;43.80;23.17;;;;;;;8.17;100.00;94604.00;5013009;28;20385;-59
2022/12/23 04:38:36;;;;;;;42.25;20.90;;;;;;;8.12;100.00;94942.66;5014181;28;20080;-59
2022/12/23 04:41:01;;;;;;;38.60;22.45;;;;;;;8.10;100.00;95286.69;5012612;28;20141;-59
2022/12/23 04:43:27;;;;;;;44.25;23.48;;;;;;;8.07;100.00;95282.03;5014263;28;20021;-59
2022/12/23 04:45:52;;;;;;;49.75;24.73;;;;;;;8.05;100.00;95624.50;5018129;28;20046;-59
2022/12/23 04:48:18;;;;;;;42.03;24.20;;;;;;;7.98;100.00;95959.94;5014013;28;20481;-60
2022/12/23 04:50:43;;;;;;;44.75;20.42;;;;;;;8.03;100.00;95967.75;5012863;28;20045;-60
2022/12/23 04:53:09;;;;;;;49.20;26.20;;;;;;;8.00;100.00;96309.44;5014021;28;20034;-59
2022/12/23 04:55:35;;;;;;;57.33;24.38;;;;;;;7.99;100.00;96654.28;5012633;28;20037;-59
2022/12/23 04:58:00;;;;;;;58.40;27.60;;;;;;;7.97;100.00;96651.13;5031937;28;20455;-60
2022/12/23 05:00:25;;;;;;;46.25;25.20;;;;;;;7.98;100.00;96653.47;5033502;28;20022;-59
2022/12/23 05:02:50;;;;;;;60.65;30.60;;;;;;;7.97;100.00;96998.31;5032228;28;20509;-60
2022/12/23 05:05:16;;;;;;;48.97;29.00;;;;;;;7.92;100.00;97337.66;5033025;28;20025;-60
2022/12/23 05:07:41;;;;;;;66.90;29.05;;;;;;;7.91;100.00;97336.06;5031018;28;20099;-59
2022/12/23 05:10:07;;;;;;;53.40;28.27;;;;;;;7.87;100.00;97676.13;5032959;28;20030;-59
2022/12/23 05:12:32;;;;;;;63.38;29.20;;;;;;;7.85;100.00;98018.59;5025484;28;20073;-60
2022/12/23 05:14:58;;;;;;;57.53;29.40;;;;;;;7.84;100.00;98364.25;5031907;28;20049;-60
2022/12/23 05:17:23;;;;;;;56.25;31.95;;;;;;;7.80;100.00;98703.53;5029182;28;20030;-60
2022/12/23 05:19:48;;;;;;;65.30;33.88;;;;;;;7.81;100.00;98705.13;5033310;28;20033;-60
2022/12/23 05:22:14;;;;;;;53.47;31.13;;;;;;;7.79;100.00;99395.72;5024748;28;20033;-60
2022/12/23 05:24:39;;;;;;;53.42;29.60;;;;;;;7.80;100.00;99397.34;5020498;28;20084;-60
2022/12/23 05:27:04;;;;;;;63.00;32.22;;;;;;;7.73;100.00;100079.06;5023935;28;20103;-60
2022/12/23 05:29:30;;;;;;;62.90;32.88;;;;;;;7.72;100.00;100424.00;5033189;28;20508;-60
2022/12/23 05:31:55;;;;;;;61.90;33.00;;;;;;;7.67;100.00;100762.38;5031398;28;20041;-60
2022/12/23 05:34:21;;;;;;;64.07;33.67;;;;;;;7.69;100.00;100766.50;5033097;28;20065;-60
2022/12/23 05:36:46;;;;;;;59.67;33.83;;;;;;;7.69;100.00;101458.94;5021849;28;20057;-60
2022/12/23 05:39:11;;;;;;;59.03;34.95;;;;;;;7.69;100.00;101805.59;5012670;28;20049;-61
2022/12/23 05:41:37;;;;;;;67.22;33.70;;;;;;;7.66;100.00;102494.00;5011731;28;20044;-60
2022/12/23 05:44:02;;;;;;;62.15;36.15;;;;;;;7.68;100.00;102844.13;5013038;28;20452;-60
2022/12/23 05:46:27;;;;;;;58.03;33.95;;;;;;;7.65;100.00;103185.84;5012191;28;20042;-60
2022/12/23 05:48:53;;;;;;;57.40;32.85;;;;;;;7.63;100.00;103877.75;5021613;28;20029;-60
2022/12/23 05:51:18;;;;;;;64.40;35.53;;;;;;;7.62;100.00;104222.06;5029243;28;20058;-60
2022/12/23 05:53:43;;;;;;;55.72;33.50;;;;;;;7.63;100.00;104570.66;5016862;28;20018;-60
2022/12/23 05:56:09;;;;;;;66.93;36.00;;;;;;;7.65;100.00;104920.13;5018371;28;20519;-60
2022/12/23 05:58:34;;;;;;;63.78;37.88;;;;;;;7.61;100.00;105261.91;5031146;28;20393;-60
2022/12/23 06:01:01;;;;;;;62.60;36.67;;;;;;;7.59;100.00;105604.56;5029416;28;20044;-60
2022/12/23 06:03:27;;;;;;;62.65;38.25;;;;;;;7.61;100.00;105954.97;5032401;28;20088;-60
2022/12/23 06:05:53;;;;;;;67.45;40.47;;;;;;;7.63;100.00;106306.31;5022250;28;20037;-60
2022/12/23 06:08:18;;;;;;;63.17;36.15;;;;;;;7.66;100.00;106310.69;5025987;28;20547;-60
2022/12/23 06:10:44;;;;;;;60.90;38.30;;;;;;;7.62;100.00;106998.75;5024177;28;20021;-60
2022/12/23 06:13:09;;;;;;;57.83;39.33;;;;;;;7.62;100.00;107693.00;5023746;28;20083;-60
2022/12/23 06:15:34;;;;;;;60.00;38.63;;;;;;;7.67;100.00;107352.84;5016425;28;20025;-60
2022/12/23 06:18:00;;;;;;;64.57;36.65;;;;;;;7.71;100.00;107707.06;5022303;28;20021;-60
2022/12/23 06:20:25;;;;;;;62.00;39.80;;;;;;;7.70;100.00;108400.63;5012032;28;20481;-61
2022/12/23 06:22:50;;;;;;;63.25;38.30;;;;;;;7.65;100.00;109085.41;5020549;28;20381;-61
2022/12/23 06:25:16;;;;;;;74.45;40.58;;;;;;;7.63;100.00;109777.34;5012887;28;20065;-59
2022/12/23 06:27:41;;;;;;;66.25;40.20;;;;;;;7.67;100.00;110131.88;5010548;28;20440;-59
2022/12/23 06:30:07;;;;;;;60.15;36.42;;;;;;;7.61;100.00;110815.84;5029727;28;20033;-60
2022/12/23 06:32:32;;;;;;;72.13;41.20;;;;;;;7.61;100.00;111164.19;5029864;28;20045;-59
2022/12/23 06:34:58;;;;;;;67.88;41.40;;;;;;;7.57;100.00;111851.81;5019356;28;20582;-59
2022/12/23 06:37:23;;;;;;;65.45;38.53;;;;;;;7.61;100.00;112206.66;5009108;28;20409;-59
2022/12/23 06:39:48;;;;;;;70.30;41.88;;;;;;;7.62;100.00;112208.50;5011595;28;20026;-60
2022/12/23 06:42:14;;;;;;;61.38;41.22;;;;;;;7.67;100.00;112215.84;5009177;28;20048;-59
2022/12/23 06:44:39;;;;;;;72.57;43.55;;;;;;;7.63;100.00;112557.88;5020675;28;20067;-59
2022/12/23 06:47:04;;;;;;;71.28;39.63;;;;;;;7.58;100.00;113243.81;5015538;28;20128;-59
2022/12/23 06:49:30;;;;;;;65.90;39.20;;;;;;;7.54;100.00;113931.66;5025339;28;20029;-59
2022/12/23 06:51:55;;;;;;;70.60;41.35;;;;;;;7.54;100.00;113930.69;5022558;28;20683;-59
2022/12/23 06:54:20;;;;;;;79.15;43.58;;;;;;;7.52;100.00;114274.63;5020385;28;20435;-59
2022/12/23 06:56:46;;;;;;;78.25;45.95;;;;;;;7.52;100.00;114275.53;5015701;28;20049;-59
2022/12/23 06:59:11;;;;;;;80.32;47.42;;;;;;;7.52;100.00;114275.53;5011631;28;20041;-59
2022/12/23 07:01:36;;;;;;;85.53;48.90;;;;;;;7.53;100.00;113928.81;5009549;28;20041;-59
2022/12/23 07:04:02;;;;;;;100.72;57.95;;;;;;;7.49;100.00;113922.28;5022873;28;20099;-59
2022/12/23 07:06:28;;;;;;;88.80;54.08;;;;;;;7.46;100.00;113916.72;5022566;28;20124;-59
2022/12/23 07:08:53;;;;;;;103.10;50.53;;;;;;;7.50;100.00;113575.63;5022492;28;20037;-60
2022/12/23 07:11:18;;;;;;;84.30;44.28;;;;;;;7.49;100.00;113574.69;5013403;28;20045;-59
2022/12/23 07:13:45;;;;;;;82.10;45.65;;;;;;;7.49;100.00;113226.22;5025301;28;20036;-59
2022/12/23 07:16:11;;;;;;;86.07;42.83;;;;;;;7.47;100.00;113224.34;5028335;28;20045;-59
2022/12/23 07:18:36;;;;;;;79.00;41.53;;;;;;;7.40;100.00;112862.97;5008357;28;20026;-59
2022/12/23 07:21:02;;;;;;;101.38;46.03;;;;;;;7.41;100.00;112864.84;5020346;28;20079;-60
2022/12/23 07:23:28;;;;;;;92.43;44.55;;;;;;;7.40;100.00;112862.97;5017463;28;20100;-64
2022/12/23 07:25:54;;;;;;;95.93;41.67;;;;;;;7.34;100.00;112852.81;5024390;28;20104;-59
2022/12/23 07:28:20;;;;;;;84.80;38.58;;;;;;;7.34;100.00;112851.88;5015035;28;20029;-59
2022/12/23 07:30:46;;;;;;;96.90;44.78;;;;;;;7.18;100.00;112824.16;5024216;28;20030;-59
2022/12/23 07:33:11;;;;;;;82.03;41.33;;;;;;;7.33;100.00;112502.63;5015047;28;20049;-59
2022/12/23 07:35:36;;;;;;;92.93;43.20;;;;;;;7.35;100.00;112158.91;5023345;28;20033;-60
2022/12/23 07:38:02;;;;;;;108.32;48.50;;;;;;;7.32;100.00;112500.78;5017477;28;20029;-59
2022/12/23 07:40:27;;;;;;;85.88;37.53;;;;;;;7.28;100.00;112495.25;5020748;28;20036;-57
2022/12/23 07:42:55;;;;;;;90.75;37.10;;;;;;;7.29;100.00;112149.72;5020444;28;20068;-59
2022/12/23 07:45:20;;;;;;;107.03;43.45;;;;;;;7.27;100.00;112493.41;5025846;28;20052;-59
2022/12/23 07:47:46;;;;;;;102.75;43.15;;;;;;;7.23;100.00;112486.03;5021234;28;20037;-59
2022/12/23 07:50:12;;;;;;;99.75;40.90;;;;;;;7.25;100.00;112489.72;5016287;28;20055;-59
2022/12/23 07:52:37;;;;;;;119.47;42.75;;;;;;;7.23;100.00;112486.03;5028372;28;20049;-59
2022/12/23 07:55:04;;;;;;;91.97;37.72;;;;;;;7.23;100.00;112486.03;5028830;28;20033;-59
2022/12/23 07:57:36;;;;;;;84.43;40.17;;;;;;;7.25;100.00;112489.72;5009426;28;20128;-59
2022/12/23 08:00:02;;;;;;;92.55;36.30;;;;;;;7.25;100.00;112489.72;5010856;28;20873;-59
2022/12/23 08:02:27;;;;;;;84.18;39.55;;;;;;;7.23;100.00;112486.03;5025696;28;20507;-59
2022/12/23 08:04:53;;;;;;;100.40;39.95;;;;;;;7.20;100.00;112827.84;5017291;28;20026;-59
2022/12/23 08:07:18;;;;;;;95.28;39.75;;;;;;;7.22;100.00;112830.63;5011323;28;20053;-59
2022/12/23 08:09:43;;;;;;;108.03;44.08;;;;;;;7.21;100.00;112829.69;5009978;28;20030;-59
2022/12/23 08:12:09;;;;;;;101.85;46.97;;;;;;;7.22;100.00;112831.56;5011055;28;20050;-59
2022/12/23 08:14:34;;;;;;;91.18;39.10;;;;;;;7.26;100.00;112838.94;5029441;28;20055;-59
2022/12/23 08:16:59;;;;;;;82.22;41.35;;;;;;;7.27;100.00;112493.41;5017040;28;20048;-59
2022/12/23 08:19:25;;;;;;;81.18;34.30;;;;;;;7.28;100.00;112842.63;5021931;28;20040;-59
2022/12/23 08:21:50;;;;;;;99.22;41.30;;;;;;;7.25;100.00;112837.09;5021906;28;20068;-59
2022/12/23 08:24:15;;;;;;;83.55;37.17;;;;;;;7.26;100.00;113186.34;5018177;28;20820;-59
2022/12/23 08:26:41;;;;;;;98.65;38.45;;;;;;;7.24;100.00;113530.06;5024449;28;20396;-59
2022/12/23 08:29:06;;;;;;;102.43;38.60;;;;;;;7.26;100.00;113533.78;5022500;28;20030;-59
2022/12/23 08:31:31;;;;;;;98.55;38.83;;;;;;;7.23;100.00;113875.66;5019749;28;20045;-59
2022/12/23 08:33:58;;;;;;;106.35;41.33;;;;;;;7.22;100.00;113873.78;5022922;28;20028;-59
2022/12/23 08:36:27;;;;;;;93.32;38.95;;;;;;;7.25;100.00;113878.44;5023585;28;20485;-59
2022/12/23 08:38:53;;;;;;;;;;;;;;;7.27;100.00;113883.09;5026090;28;20033;-59
2022/12/23 08:41:22;;;;;;;108.03;38.80;;;;;;;7.27;100.00;113883.09;5020574;28;19975;-59
2022/12/23 08:43:48;;;;;;;102.68;40.67;;;;;;;7.24;100.00;114225.00;5026447;28;20033;-59
2022/12/23 08:46:13;;;;;;;125.47;43.90;;;;;;;7.28;100.00;113884.97;5026674;28;20067;-59
2022/12/23 08:48:38;;;;;;;109.18;40.08;;;;;;;7.30;100.00;113888.72;5023850;28;20707;-59
2022/12/23 08:51:06;;;;;;;116.00;40.78;;;;;;;7.30;100.00;113888.72;5007703;28;20037;-59
2022/12/23 08:53:33;;;;;;;106.32;39.10;;;;;;;7.33;100.00;113892.47;5010838;28;20057;-60
2022/12/23 08:56:04;;;;;;;117.90;46.95;;;;;;;7.36;100.00;113550.53;5008623;28;20049;-59
2022/12/23 08:58:30;;;;;;;121.07;41.08;;;;;;;7.43;100.00;112868.50;5010858;28;20049;-59
2022/12/23 09:00:55;;;;;;;104.03;39.03;;;;;;;7.57;100.00;111850.91;5019446;28;20528;-59
2022/12/23 09:03:21;;;;;;;119.20;40.78;;;;;;;7.59;100.00;111855.47;5031421;28;20045;-59
2022/12/23 09:05:46;;;;;;;111.43;39.50;;;;;;;7.62;100.00;111513.50;5012303;28;20029;-59
2022/12/23 09:08:11;;;;;;;96.38;37.25;;;;;;;7.65;100.00;111517.13;5026205;28;20028;-59
2022/12/23 09:10:41;;;;;;;104.38;41.83;;;;;;;7.55;100.00;112194.72;5027464;28;20048;-59
2022/12/23 09:13:07;;;;;;;111.85;43.28;;;;;;;7.52;100.00;112885.16;5019306;28;20030;-59
2022/12/23 09:15:37;;;;;;;118.75;41.75;;;;;;;7.59;100.00;112897.19;5028481;28;20044;-59
2022/12/23 09:18:03;;;;;;;94.43;36.88;;;;;;;7.69;100.00;112567.13;5013304;28;20026;-59
2022/12/23 09:20:28;;;;;;;116.97;38.65;;;;;;;7.78;100.00;112236.97;5011832;28;20076;-58
2022/12/23 09:22:54;;;;;;;119.72;40.75;;;;;;;7.77;100.00;112929.53;5013271;28;20033;-59
2022/12/23 09:25:19;;;;;;;91.75;39.15;;;;;;;7.74;100.00;113620.25;5012688;28;20025;-59
2022/12/23 09:27:44;;;;;;;104.32;40.20;;;;;;;7.76;100.00;113970.84;5017906;28;20038;-59
2022/12/23 09:30:10;;;;;;;106.55;42.38;;;;;;;7.77;100.00;114668.31;5014074;28;20025;-59
2022/12/23 09:32:35;;;;;;;93.20;40.30;;;;;;;7.77;100.00;115364.03;5028860;28;20052;-59
2022/12/23 09:35:00;;;;;;;98.47;39.53;;;;;;;7.80;100.00;115716.66;5032229;28;20052;-59
2022/12/23 09:37:26;;;;;;;104.82;37.08;;;;;;;7.86;100.00;116076.00;5026541;28;20415;-59
2022/12/23 09:39:51;;;;;;;97.80;39.72;;;;;;;7.83;100.00;116419.25;5013914;28;20033;-59
2022/12/23 09:42:37;;;;;;;88.40;38.53;;;;;;;7.94;100.00;117136.44;5011075;28;20045;-59
2022/12/23 09:45:36;;;;;;;101.20;42.67;;;;;;;7.97;100.00;117836.66;5031055;28;20033;-59
2022/12/23 09:48:03;;;;;;;90.38;39.25;;;;;;;8.01;100.00;118889.19;5030888;28;20068;-59
2022/12/23 09:50:32;;;;;;;98.20;39.75;;;;;;;8.06;100.00;120293.56;5032114;28;20075;-59
2022/12/23 09:53:11;;;;;;;;;;;;;;;8.00;100.00;122720.53;5012785;28;20516;-59
2022/12/23 09:55:53;;;;;;;86.15;36.40;;;;;;;7.98;100.00;125506.47;5014674;28;19964;-59
2022/12/23 09:58:28;;;;;;;81.80;36.92;;;;;;;7.99;100.00;127254.31;5010356;28;20076;-59
2022/12/23 10:01:11;;;;;;;98.78;40.40;;;;;;;8.04;100.00;129009.34;5013802;28;20044;-58
2022/12/23 10:03:45;;;;;;;90.00;38.88;;;;;;;8.10;100.00;130419.22;5027904;28;20025;-59
2022/12/23 10:06:18;;;;;;;83.13;38.67;;;;;;;8.11;100.00;133217.22;5029063;28;20041;-59
2022/12/23 10:08:47;;;;;;;91.38;41.53;;;;;;;8.13;100.00;136018.28;5030784;28;20025;-59
2022/12/23 10:11:26;;;;;;;;;;;;;;;8.12;100.00;138816.84;5030051;28;20039;-59
2022/12/23 10:14:09;;;;;;;85.22;35.67;;;;;;;8.11;100.00;141966.38;5025297;28;19957;-59
2022/12/23 10:16:41;;;;;;;90.40;40.63;;;;;;;8.09;100.00;145115.81;5020597;28;20049;-59
2022/12/23 10:19:24;;;;;;;91.88;41.97;;;;;;;8.11;100.00;146874.03;5011757;28;20539;-59
2022/12/23 10:22:10;;;;;;;79.38;38.95;;;;;;;8.10;100.00;148274.81;5010750;28;20042;-59
2022/12/23 10:24:40;;;;;;;77.55;37.00;;;;;;;8.17;100.00;148642.88;5012367;28;20022;-59
2022/12/23 10:27:30;;;;;;;93.13;42.45;;;;;;;8.23;100.00;149359.59;5010110;28;20068;-60
2022/12/23 10:30:01;;;;;;;85.00;40.60;;;;;;;8.21;100.00;151110.19;5020172;28;20033;-59
2022/12/23 10:33:02;;;;;;;91.20;43.13;;;;;;;8.14;100.00;153551.31;5021316;28;20054;-60
2022/12/23 10:35:43;;;;;;;89.30;41.35;;;;;;;8.19;100.00;154265.53;5018963;28;20034;-59
2022/12/23 10:38:23;;;;;;;104.70;43.85;;;;;;;8.21;100.00;154622.06;5023484;28;20539;-60
2022/12/23 10:40:48;;;;;;;86.15;42.95;;;;;;;8.25;100.00;154632.31;5010956;28;20393;-59
2022/12/23 10:43:34;;;;;;;89.95;47.25;;;;;;;8.23;100.00;154979.94;5010125;28;20109;-59
2022/12/23 10:46:24;;;;;;;95.10;44.13;;;;;;;8.23;100.00;154628.44;5016047;28;20046;-60
2022/12/23 10:49:02;;;;;;;97.55;46.58;;;;;;;8.24;100.00;153928.09;5019351;28;20037;-59
2022/12/23 10:51:35;;;;;;;81.18;42.00;;;;;;;8.29;100.00;152532.75;5019616;28;20064;-60
2022/12/23 10:54:00;;;;;;;94.47;42.72;;;;;;;8.32;100.00;151487.66;5030868;28;20036;-61
2022/12/23 10:56:28;;;;;;;90.93;44.85;;;;;;;8.20;100.00;151107.69;5013783;28;20125;-60
2022/12/23 10:58:56;;;;;;;90.68;44.42;;;;;;;8.30;100.00;150427.78;5011311;28;20028;-60
2022/12/23 11:01:22;;;;;;;93.80;45.05;;;;;;;8.34;100.00;149384.31;5010068;28;20037;-60
2022/12/23 11:04:15;;;;;;;92.53;45.42;;;;;;;8.33;100.00;149032.00;5018749;28;20494;-60
2022/12/23 11:06:45;;;;;;;79.10;40.60;;;;;;;8.39;100.00;147992.38;5028605;28;20087;-60
2022/12/23 11:09:23;;;;;;;82.15;38.97;;;;;;;8.42;100.00;147648.72;5030370;28;20081;-60
2022/12/23 11:12:02;;;;;;;79.78;41.47;;;;;;;8.43;100.00;147300.16;5014535;28;20046;-60
2022/12/23 11:14:28;;;;;;;;;;;;;;;8.40;100.00;146941.91;5011817;28;20022;-60
2022/12/23 11:16:54;;;;;;;71.32;37.92;;;;;;;8.42;100.00;146946.78;5018425;28;20446;-60
2022/12/23 11:19:19;;;;;;;73.47;42.30;;;;;;;8.43;100.00;146598.28;5010215;28;20025;-59
2022/12/23 11:21:58;;;;;;;70.88;33.92;;;;;;;8.38;100.00;146937.06;5009719;28;20512;-60
2022/12/23 11:24:25;;;;;;;70.32;35.50;;;;;;;8.46;100.00;146254.63;5010460;28;20173;-60
2022/12/23 11:27:04;;;;;;;69.45;34.90;;;;;;;8.49;100.00;146612.84;5024991;28;20050;-59
2022/12/23 11:29:36;;;;;;;74.32;39.40;;;;;;;8.51;100.00;146968.69;5026018;28;20385;-59
2022/12/23 11:32:14;;;;;;;63.00;31.35;;;;;;;8.48;100.00;148014.41;5022257;28;20114;-60
2022/12/23 11:34:44;;;;;;;66.93;34.28;;;;;;;8.43;100.00;149757.69;5010621;28;20034;-63
2022/12/23 11:37:35;;;;;;;59.72;31.60;;;;;;;8.42;100.00;150457.59;5018666;28;20084;-60
2022/12/23 11:40:05;;;;;;;62.30;34.45;;;;;;;8.42;100.00;150808.84;5017402;28;20423;-60
2022/12/23 11:42:33;;;;;;;62.38;32.08;;;;;;;8.47;100.00;150821.34;5032056;28;20033;-60
2022/12/23 11:44:59;;;;;;;63.55;33.47;;;;;;;8.52;100.00;150482.53;5049896;28;20119;-60
2022/12/23 11:47:28;;;;;;;56.50;29.10;;;;;;;8.51;100.00;150831.31;5048717;28;20041;-60
2022/12/23 11:50:19;;;;;;;46.10;28.33;;;;;;;8.53;100.00;151186.38;5050487;28;20116;-60
2022/12/23 11:52:59;;;;;;;52.20;29.13;;;;;;;8.47;100.00;152929.59;5009285;28;20038;-60
2022/12/23 11:55:33;;;;;;;52.70;30.38;;;;;;;8.53;100.00;153296.28;5014260;28;20041;-60